Saint Libory, Illinois
Current Conditions -  °F | °C
As of 2:15 PM on Wednesday 26 Nov 2014 (Local Time) from KSAR Reporting Station
Moderate Snow Moderate Snow  
Wind Chill: 32°   Ceiling: 300
Heat Index: 32°   Visibility: 0.25mi
Dew Point: 32°   Wind: 0mph
Humidity: 99%   Direction: NA
Pressure: 29.99"   Gusts: NA
Location:  38.36°N, 89.71°W
Report Text: KSAR 262015Z AUTO 00000KT 1/4SM SN OVC003 00/00 A2999 RMK AO2 P0002 T00001002
Loading
Personal Weather Stations






























Interactive Weather Map New forecast layout! Learn more

10-Day Weather Forecast

Advertisements
Track Severe Weather on mobile